createdAt,value
2022-12-03T00:00:00.316Z,2.89
2022-12-03T00:01:00.285Z,2.94
2022-12-03T00:02:00.268Z,2.95
2022-12-03T00:03:00.366Z,2.97
2022-12-03T00:04:00.461Z,2.98
2022-12-03T00:05:00.259Z,2.97
2022-12-03T00:06:00.214Z,2.97
2022-12-03T00:07:00.206Z,2.98
2022-12-03T00:08:00.250Z,2.97
2022-12-03T00:09:00.204Z,2.98
2022-12-03T00:10:00.176Z,2.98
2022-12-03T00:11:00.154Z,3.00
2022-12-03T00:12:00.143Z,2.97
2022-12-03T00:13:00.141Z,2.92
2022-12-03T00:14:00.137Z,2.95
2022-12-03T00:15:00.142Z,2.92
2022-12-03T00:16:00.219Z,2.95
2022-12-03T00:17:00.082Z,2.97
2022-12-03T00:18:00.084Z,2.94
2022-12-03T00:19:00.070Z,2.92
2022-12-03T00:20:00.140Z,2.95
2022-12-03T00:21:00.016Z,2.97
2022-12-03T00:22:00.002Z,2.95
2022-12-03T00:22:59.997Z,2.95
2022-12-03T00:23:59.975Z,2.97
2022-12-03T00:25:00.030Z,3.00
2022-12-03T00:25:59.951Z,2.97
2022-12-03T00:26:59.942Z,3.00
2022-12-03T00:27:59.925Z,3.00
2022-12-03T00:28:59.921Z,2.98
2022-12-03T00:29:59.925Z,2.98
2022-12-03T00:30:59.939Z,3.00
2022-12-03T00:31:59.864Z,3.00
2022-12-03T00:32:59.874Z,3.00
2022-12-03T00:33:59.846Z,2.98
2022-12-03T00:34:59.826Z,2.97
2022-12-03T00:35:59.839Z,2.97
2022-12-03T00:36:59.804Z,3.00
2022-12-03T00:37:59.782Z,3.03
2022-12-03T00:38:59.777Z,3.02
2022-12-03T00:39:59.777Z,3.03
2022-12-03T00:40:59.783Z,3.03
2022-12-03T00:41:59.756Z,3.05
2022-12-03T00:42:59.724Z,3.06
2022-12-03T00:43:59.712Z,3.02
2022-12-03T00:44:59.696Z,3.02
2022-12-03T00:45:59.791Z,3.02
2022-12-03T00:46:59.702Z,3.02
2022-12-03T00:47:59.652Z,3.03
2022-12-03T00:48:59.678Z,3.02
2022-12-03T00:49:59.624Z,3.06
2022-12-03T00:50:59.665Z,3.06
2022-12-03T00:51:59.595Z,3.03
2022-12-03T00:52:59.586Z,3.06
2022-12-03T00:53:59.564Z,3.05
2022-12-03T00:54:59.566Z,3.07
2022-12-03T00:55:59.585Z,3.07
2022-12-03T00:56:59.562Z,3.06
2022-12-03T00:57:59.526Z,3.09
2022-12-03T00:58:59.505Z,3.05
2022-12-03T00:59:59.495Z,3.05
2022-12-03T01:00:59.508Z,3.02
2022-12-03T01:01:59.493Z,2.98
2022-12-03T01:02:59.472Z,2.98
2022-12-03T01:03:59.438Z,2.98
2022-12-03T01:04:59.507Z,3.00
2022-12-03T01:05:59.434Z,3.02
2022-12-03T01:06:59.397Z,3.00
2022-12-03T01:07:59.423Z,3.06
2022-12-03T01:08:59.386Z,3.03
2022-12-03T01:09:59.407Z,3.06
2022-12-03T01:10:59.356Z,3.03
2022-12-03T01:11:59.342Z,3.07
2022-12-03T01:12:59.317Z,3.07
2022-12-03T01:13:59.304Z,3.05
2022-12-03T01:14:59.296Z,3.09
2022-12-03T01:15:59.379Z,3.09
2022-12-03T01:16:59.267Z,3.10
2022-12-03T01:17:59.258Z,3.03
2022-12-03T01:18:59.246Z,2.98
2022-12-03T01:19:59.226Z,2.97
2022-12-03T01:20:59.227Z,3.00
2022-12-03T01:21:59.205Z,3.02
2022-12-03T01:22:59.185Z,2.97
2022-12-03T01:23:59.179Z,2.95
2022-12-03T01:24:59.165Z,2.98
2022-12-03T01:25:59.165Z,2.98
2022-12-03T01:26:59.135Z,2.95
2022-12-03T01:27:59.120Z,2.94
2022-12-03T01:28:59.095Z,3.00
2022-12-03T01:29:59.086Z,3.03
2022-12-03T01:30:59.240Z,3.05
2022-12-03T01:31:59.078Z,3.09
2022-12-03T01:32:59.049Z,3.06
2022-12-03T01:33:59.036Z,3.06
2022-12-03T01:34:59.028Z,3.07
2022-12-03T01:35:59.037Z,3.09
2022-12-03T01:36:58.988Z,3.07
2022-12-03T01:37:58.987Z,3.07
2022-12-03T01:38:58.983Z,3.09
2022-12-03T01:39:58.959Z,3.07
2022-12-03T01:40:58.960Z,3.06
2022-12-03T01:41:58.946Z,3.05
2022-12-03T01:42:58.914Z,3.05
2022-12-03T01:43:58.914Z,3.02
2022-12-03T01:44:58.894Z,3.00
2022-12-03T01:45:58.897Z,3.02
2022-12-03T01:46:58.934Z,3.02
2022-12-03T01:47:58.857Z,3.03
2022-12-03T01:48:58.835Z,3.00
2022-12-03T01:49:58.826Z,3.00
2022-12-03T01:50:58.843Z,3.03
2022-12-03T01:51:58.806Z,3.00
2022-12-03T01:52:58.787Z,3.02
2022-12-03T01:53:58.768Z,3.03
2022-12-03T01:54:58.757Z,3.03
2022-12-03T01:55:58.760Z,3.07
2022-12-03T01:56:58.727Z,3.06
2022-12-03T01:57:58.718Z,3.09
2022-12-03T01:58:58.704Z,3.05
2022-12-03T01:59:58.707Z,3.03
2022-12-03T02:00:58.690Z,3.06
2022-12-03T02:01:58.683Z,3.03
2022-12-03T02:02:58.647Z,3.06
2022-12-03T02:03:58.714Z,3.09
2022-12-03T02:04:58.627Z,3.05
2022-12-03T02:05:58.629Z,3.05
2022-12-03T02:06:58.596Z,3.02
2022-12-03T02:07:58.645Z,3.03
2022-12-03T02:08:58.568Z,3.05
2022-12-03T02:09:58.556Z,3.06
2022-12-03T02:10:58.577Z,3.03
2022-12-03T02:11:58.542Z,3.06
2022-12-03T02:12:58.507Z,3.09
2022-12-03T02:13:58.505Z,3.07
2022-12-03T02:14:58.486Z,3.07
2022-12-03T02:15:58.529Z,3.00
2022-12-03T02:16:58.474Z,3.06
2022-12-03T02:17:58.448Z,3.03
2022-12-03T02:18:58.427Z,3.05
2022-12-03T02:19:58.436Z,3.07
2022-12-03T02:20:58.436Z,3.05
2022-12-03T02:21:58.397Z,3.06
2022-12-03T02:22:58.377Z,3.05
2022-12-03T02:23:58.376Z,3.05
2022-12-03T02:24:58.356Z,3.02
2022-12-03T02:25:58.366Z,3.03
2022-12-03T02:26:58.347Z,3.05
2022-12-03T02:27:58.316Z,3.07
2022-12-03T02:28:58.315Z,3.05
2022-12-03T02:29:58.290Z,3.05
2022-12-03T02:30:58.332Z,3.06
2022-12-03T02:31:58.327Z,3.05
2022-12-03T02:32:58.246Z,3.06
2022-12-03T02:33:58.259Z,3.06
2022-12-03T02:34:58.215Z,3.07
2022-12-03T02:36:03.337Z,3.10
2022-12-03T02:36:59.207Z,3.12
2022-12-03T02:37:58.178Z,3.13
2022-12-03T02:38:58.167Z,3.15
2022-12-03T02:39:58.149Z,3.09
2022-12-03T02:40:58.147Z,3.05
2022-12-03T02:41:58.148Z,3.06
2022-12-03T02:42:58.109Z,3.05
2022-12-03T02:43:58.097Z,3.05
2022-12-03T02:45:03.505Z,3.06
2022-12-03T02:45:59.089Z,3.05
2022-12-03T02:46:58.147Z,3.02
2022-12-03T02:47:58.047Z,3.00
2022-12-03T02:48:58.058Z,2.97
2022-12-03T02:49:58.031Z,2.98
2022-12-03T02:50:58.007Z,2.97
2022-12-03T02:51:58.014Z,2.98
2022-12-03T02:52:57.976Z,2.98
2022-12-03T02:53:57.967Z,2.98
2022-12-03T02:54:57.958Z,3.02
2022-12-03T02:55:57.938Z,2.97
2022-12-03T02:56:57.948Z,3.02
2022-12-03T02:57:57.910Z,3.00
2022-12-03T02:58:57.918Z,2.97
2022-12-03T02:59:57.888Z,2.94
2022-12-03T03:00:57.930Z,2.94
2022-12-03T03:01:57.934Z,2.95
2022-12-03T03:02:57.837Z,2.92
2022-12-03T03:03:57.831Z,2.95
2022-12-03T03:04:57.807Z,2.92
2022-12-03T03:05:57.806Z,2.94
2022-12-03T03:06:57.807Z,2.97
2022-12-03T03:07:57.830Z,2.97
2022-12-03T03:08:57.769Z,2.97
2022-12-03T03:09:57.748Z,2.97
2022-12-03T03:10:57.738Z,2.95
2022-12-03T03:11:57.750Z,2.98
2022-12-03T03:12:57.708Z,2.98
2022-12-03T03:13:57.697Z,2.98
2022-12-03T03:14:57.679Z,2.97
2022-12-03T03:15:57.707Z,2.98
2022-12-03T03:16:57.690Z,2.97
2022-12-03T03:17:57.657Z,2.98
2022-12-03T03:18:57.629Z,2.98
2022-12-03T03:19:57.617Z,2.97
2022-12-03T03:20:57.607Z,3.00
2022-12-03T03:21:57.609Z,3.00
2022-12-03T03:22:57.584Z,2.97
2022-12-03T03:23:57.568Z,2.94
2022-12-03T03:24:57.558Z,2.92
2022-12-03T03:25:57.538Z,2.92
2022-12-03T03:26:57.536Z,2.92
2022-12-03T03:27:57.531Z,2.91
2022-12-03T03:28:57.497Z,2.91
2022-12-03T03:29:57.481Z,2.92
2022-12-03T03:30:57.483Z,2.89
2022-12-03T03:31:57.540Z,2.91
2022-12-03T03:32:57.449Z,2.87
2022-12-03T03:33:57.469Z,2.91
2022-12-03T03:34:57.428Z,2.92
2022-12-03T03:35:57.415Z,2.94
2022-12-03T03:36:57.405Z,2.91
2022-12-03T03:37:57.387Z,2.89
2022-12-03T03:38:57.372Z,2.87
2022-12-03T03:39:57.349Z,2.89
2022-12-03T03:40:57.346Z,2.88
2022-12-03T03:43:07.156Z,2.89
2022-12-03T03:44:09.772Z,2.88
2022-12-03T03:45:07.112Z,2.87
2022-12-03T03:46:07.109Z,2.91
2022-12-03T03:47:07.163Z,2.94
2022-12-03T03:48:07.062Z,2.88
2022-12-03T03:49:07.053Z,2.88
2022-12-03T03:50:07.045Z,2.88
2022-12-03T03:51:07.020Z,2.89
2022-12-03T03:52:07.035Z,2.88
2022-12-03T03:53:06.993Z,2.85
2022-12-03T03:54:06.990Z,2.87
2022-12-03T03:55:06.973Z,2.91
2022-12-03T03:56:06.962Z,2.95
2022-12-03T03:57:06.962Z,2.92
2022-12-03T03:58:06.942Z,2.91
2022-12-03T03:59:06.917Z,2.91
2022-12-03T04:00:06.909Z,2.87
2022-12-03T04:01:06.998Z,2.89
2022-12-03T04:02:06.897Z,2.88
2022-12-03T04:03:06.864Z,2.91
2022-12-03T04:04:06.904Z,2.89
2022-12-03T04:05:06.841Z,2.89
2022-12-03T04:06:06.834Z,2.92
2022-12-03T04:07:06.834Z,2.92
2022-12-03T04:08:06.890Z,2.92
2022-12-03T04:09:06.782Z,2.92
2022-12-03T04:10:06.779Z,2.91
2022-12-03T04:11:06.763Z,2.92
2022-12-03T04:12:06.775Z,2.92
2022-12-03T04:13:06.737Z,2.92
2022-12-03T04:14:06.723Z,2.87
2022-12-03T04:15:06.704Z,2.84
2022-12-03T04:16:06.759Z,2.81
2022-12-03T04:17:06.702Z,2.84
2022-12-03T04:18:06.673Z,2.76
2022-12-03T04:19:06.652Z,2.79
2022-12-03T04:20:06.643Z,2.79
2022-12-03T04:21:06.633Z,2.84
2022-12-03T04:22:06.641Z,2.84
2022-12-03T04:23:06.604Z,2.82
2022-12-03T04:24:06.594Z,2.84
2022-12-03T04:25:06.573Z,2.85
2022-12-03T04:26:06.572Z,2.85
2022-12-03T04:27:06.574Z,2.82
2022-12-03T04:28:06.554Z,2.82
2022-12-03T04:29:06.547Z,2.79
2022-12-03T04:30:06.513Z,2.76
2022-12-03T04:31:06.611Z,2.82
2022-12-03T04:32:06.495Z,2.81
2022-12-03T04:33:06.503Z,2.81
2022-12-03T04:34:06.493Z,2.79
2022-12-03T04:35:06.504Z,2.81
2022-12-03T04:36:06.436Z,2.81
2022-12-03T04:37:06.432Z,2.87
2022-12-03T04:38:06.424Z,2.82
2022-12-03T04:39:06.398Z,2.82
2022-12-03T04:40:06.384Z,2.81
2022-12-03T04:41:06.379Z,2.82
2022-12-03T04:42:06.382Z,2.81
2022-12-03T04:43:06.365Z,2.81
2022-12-03T04:44:06.342Z,2.81
2022-12-03T04:45:06.325Z,2.82
2022-12-03T04:46:06.441Z,2.82
2022-12-03T04:47:06.293Z,2.84
2022-12-03T04:48:06.314Z,2.85
2022-12-03T04:49:06.263Z,2.84
2022-12-03T04:50:06.253Z,2.81
2022-12-03T04:51:06.243Z,2.82
2022-12-03T04:52:06.275Z,2.84
2022-12-03T04:53:06.253Z,2.82
2022-12-03T04:54:06.213Z,2.85
2022-12-03T04:55:06.184Z,2.84
2022-12-03T04:56:06.190Z,2.84
2022-12-03T04:57:06.154Z,2.85
2022-12-03T04:58:06.164Z,2.84
2022-12-03T04:59:08.067Z,2.84
2022-12-03T05:00:07.133Z,2.77
2022-12-03T05:01:06.242Z,2.79
2022-12-03T05:02:06.157Z,2.77
2022-12-03T05:03:06.195Z,2.77
2022-12-03T05:04:06.078Z,2.77
2022-12-03T05:05:06.056Z,2.76
2022-12-03T05:06:06.044Z,2.79
2022-12-03T05:07:06.023Z,2.76
2022-12-03T05:08:06.184Z,2.76
2022-12-03T05:09:06.009Z,2.76
2022-12-03T05:10:06.076Z,2.76
2022-12-03T05:11:05.983Z,2.76
2022-12-03T05:12:05.986Z,2.76
2022-12-03T05:13:05.964Z,2.77
2022-12-03T05:14:05.946Z,2.79
2022-12-03T05:15:05.924Z,2.76
2022-12-03T05:16:05.915Z,2.79
2022-12-03T05:17:05.934Z,2.79
2022-12-03T05:18:05.904Z,2.82
2022-12-03T05:19:05.875Z,2.82
2022-12-03T05:20:05.864Z,2.81
2022-12-03T05:21:05.845Z,2.77
2022-12-03T05:22:05.836Z,2.77
2022-12-03T05:23:05.843Z,2.71
2022-12-03T05:24:05.812Z,2.71
2022-12-03T05:25:05.793Z,2.70
2022-12-03T05:26:05.791Z,2.69
2022-12-03T05:27:05.769Z,2.69
2022-12-03T05:28:05.774Z,2.71
2022-12-03T05:29:05.754Z,2.71
2022-12-03T05:30:05.740Z,2.73
2022-12-03T05:31:05.776Z,2.74
2022-12-03T05:32:05.708Z,2.74
2022-12-03T05:33:05.707Z,2.71
2022-12-03T05:34:05.695Z,2.73
2022-12-03T05:35:05.663Z,2.71
2022-12-03T05:36:05.661Z,2.69
2022-12-03T05:37:05.633Z,2.69
2022-12-03T05:38:05.661Z,2.73
2022-12-03T05:39:05.616Z,2.69
2022-12-03T05:40:05.618Z,2.66
2022-12-03T05:41:05.584Z,2.63
2022-12-03T05:42:05.578Z,2.67
2022-12-03T05:43:05.586Z,2.64
2022-12-03T05:44:05.554Z,2.64
2022-12-03T05:45:05.537Z,2.66
2022-12-03T05:46:05.578Z,2.64
2022-12-03T05:47:05.513Z,2.64
2022-12-03T05:48:05.513Z,2.61
2022-12-03T05:49:05.486Z,2.63
2022-12-03T05:50:05.474Z,2.64
2022-12-03T05:51:05.464Z,2.64
2022-12-03T05:52:05.444Z,2.64
2022-12-03T05:53:05.474Z,2.66
2022-12-03T05:54:05.434Z,2.66
2022-12-03T05:55:05.413Z,2.66
2022-12-03T05:56:05.402Z,2.66
2022-12-03T05:57:05.386Z,2.67
2022-12-03T05:58:05.424Z,2.66
2022-12-03T05:59:05.375Z,2.63
2022-12-03T06:00:05.346Z,2.63
2022-12-03T06:01:05.327Z,2.66
2022-12-03T06:02:05.393Z,2.66
2022-12-03T06:03:05.422Z,2.67
2022-12-03T06:04:05.352Z,2.66
2022-12-03T06:05:05.275Z,2.66
2022-12-03T06:06:05.266Z,2.70
2022-12-03T06:07:09.606Z,2.69
2022-12-03T06:08:06.341Z,2.64
2022-12-03T06:09:05.255Z,2.63
2022-12-03T06:10:05.214Z,2.63
2022-12-03T06:11:05.213Z,2.63
2022-12-03T06:12:05.196Z,2.56
2022-12-03T06:13:05.175Z,2.61
2022-12-03T06:14:05.254Z,2.63
2022-12-03T06:15:05.155Z,2.59
2022-12-03T06:16:05.201Z,2.55
2022-12-03T06:17:05.128Z,2.56
2022-12-03T06:18:05.114Z,2.53
2022-12-03T06:19:05.114Z,2.53
2022-12-03T06:20:05.088Z,2.53
2022-12-03T06:21:05.077Z,2.55
2022-12-03T06:22:05.055Z,2.58
2022-12-03T06:23:05.035Z,2.53
2022-12-03T06:24:05.075Z,2.53
2022-12-03T06:25:07.090Z,2.55
2022-12-03T06:26:05.018Z,2.53
2022-12-03T06:27:04.995Z,2.56
2022-12-03T06:28:05.004Z,2.59
2022-12-03T06:29:04.975Z,2.56
2022-12-03T06:30:04.969Z,2.58
2022-12-03T06:31:04.984Z,2.53
2022-12-03T06:32:04.943Z,2.51
2022-12-03T06:33:04.933Z,2.48
2022-12-03T06:34:04.907Z,2.46
2022-12-03T06:35:04.894Z,2.46
2022-12-03T06:36:04.886Z,2.41
2022-12-03T06:37:04.863Z,2.41
2022-12-03T06:38:04.856Z,2.41
2022-12-03T06:39:04.848Z,2.37
2022-12-03T06:40:04.834Z,2.35
2022-12-03T06:41:04.805Z,2.33
2022-12-03T06:42:04.805Z,2.33
2022-12-03T06:43:04.803Z,2.38
2022-12-03T06:44:04.794Z,2.37
2022-12-03T06:45:04.764Z,2.38
2022-12-03T06:46:04.803Z,2.35
2022-12-03T06:47:04.742Z,2.35
2022-12-03T06:48:04.747Z,2.37
2022-12-03T06:49:04.732Z,2.33
2022-12-03T06:50:04.706Z,2.34
2022-12-03T06:51:04.685Z,2.31
2022-12-03T06:52:04.674Z,2.28
2022-12-03T06:53:04.655Z,2.23
2022-12-03T06:54:04.668Z,2.20
2022-12-03T06:55:04.629Z,2.22
2022-12-03T06:56:04.615Z,2.20
2022-12-03T06:57:04.605Z,2.22
2022-12-03T06:58:04.596Z,2.19
2022-12-03T06:59:04.594Z,2.19
2022-12-03T07:00:04.565Z,2.19
2022-12-03T07:01:04.544Z,2.17
2022-12-03T07:02:04.599Z,2.19
2022-12-03T07:03:04.582Z,2.17
2022-12-03T07:04:04.536Z,2.16
2022-12-03T07:05:04.496Z,2.15
2022-12-03T07:06:04.485Z,2.13
2022-12-03T07:07:04.470Z,2.13
2022-12-03T07:08:04.535Z,2.16
2022-12-03T07:09:04.495Z,2.13
2022-12-03T07:10:04.437Z,2.17
2022-12-03T07:11:04.426Z,2.13
2022-12-03T07:12:04.417Z,2.12
2022-12-03T07:13:04.436Z,2.15
2022-12-03T07:14:05.755Z,2.12
2022-12-03T07:15:04.367Z,2.12
2022-12-03T07:16:04.427Z,2.12
2022-12-03T07:17:04.344Z,2.12
2022-12-03T07:18:04.334Z,2.10
2022-12-03T07:19:04.338Z,2.13
2022-12-03T07:20:04.314Z,2.13
2022-12-03T07:21:04.284Z,2.15
2022-12-03T07:22:04.275Z,2.10
2022-12-03T07:23:04.264Z,2.09
2022-12-03T07:24:04.266Z,2.12
2022-12-03T07:25:04.237Z,2.12
2022-12-03T07:26:04.225Z,2.13
2022-12-03T07:27:04.208Z,2.13
2022-12-03T07:28:04.196Z,2.12
2022-12-03T07:29:04.207Z,2.09
2022-12-03T07:30:04.176Z,2.13
2022-12-03T07:31:04.193Z,2.12
2022-12-03T07:32:04.154Z,2.10
2022-12-03T07:33:04.126Z,2.13
2022-12-03T07:34:04.236Z,2.12
2022-12-03T07:35:04.106Z,2.12
2022-12-03T07:36:04.096Z,2.15
2022-12-03T07:37:04.076Z,2.12
2022-12-03T07:38:04.076Z,2.17
2022-12-03T07:39:04.066Z,2.13
2022-12-03T07:40:04.047Z,2.13
2022-12-03T07:41:04.028Z,2.12
2022-12-03T07:42:04.023Z,2.12
2022-12-03T07:43:04.004Z,2.12
2022-12-03T07:44:06.603Z,2.13
2022-12-03T07:45:04.976Z,2.10
2022-12-03T07:46:03.965Z,2.09
2022-12-03T07:47:03.977Z,2.13
2022-12-03T07:48:03.945Z,2.12
2022-12-03T07:49:03.965Z,2.10
2022-12-03T07:50:03.926Z,2.09
2022-12-03T07:51:03.911Z,2.10
2022-12-03T07:52:03.892Z,2.10
2022-12-03T07:53:03.888Z,2.19
2022-12-03T07:54:03.880Z,2.15
2022-12-03T07:55:03.855Z,2.20
2022-12-03T07:56:03.858Z,2.19
2022-12-03T07:57:03.818Z,2.22
2022-12-03T07:58:03.806Z,2.22
2022-12-03T07:59:03.838Z,2.26
2022-12-03T08:00:03.789Z,2.23
2022-12-03T08:01:03.872Z,2.23
2022-12-03T08:02:03.839Z,2.23
2022-12-03T08:03:03.749Z,2.23
2022-12-03T08:04:03.779Z,2.27
2022-12-03T08:05:03.715Z,2.26
2022-12-03T08:06:03.715Z,2.26
2022-12-03T08:07:03.693Z,2.22
2022-12-03T08:08:03.720Z,2.22
2022-12-03T08:09:03.707Z,2.22
2022-12-03T08:10:03.656Z,2.19
2022-12-03T08:11:03.647Z,2.20
2022-12-03T08:12:03.635Z,2.19
2022-12-03T08:13:03.617Z,2.22
2022-12-03T08:14:03.622Z,2.22
2022-12-03T08:15:03.586Z,2.26
2022-12-03T08:16:03.623Z,2.28
2022-12-03T08:17:03.740Z,2.27
2022-12-03T08:18:03.556Z,2.28
2022-12-03T08:19:03.552Z,2.27
2022-12-03T08:20:03.538Z,2.28
2022-12-03T08:21:03.517Z,2.28
2022-12-03T08:22:03.497Z,2.28
2022-12-03T08:23:03.488Z,2.28
2022-12-03T08:24:03.483Z,2.28
2022-12-03T08:25:03.458Z,2.26
2022-12-03T08:26:03.449Z,2.27
2022-12-03T08:27:03.436Z,2.23
2022-12-03T08:28:03.417Z,2.26
2022-12-03T08:29:03.417Z,2.27
2022-12-03T08:30:03.386Z,2.28
2022-12-03T08:31:03.386Z,2.28
2022-12-03T08:32:03.398Z,2.23
2022-12-03T08:33:03.420Z,2.27
2022-12-03T08:34:03.356Z,2.33
2022-12-03T08:35:03.326Z,2.34
2022-12-03T08:36:03.319Z,2.38
2022-12-03T08:37:03.307Z,2.35
2022-12-03T08:38:03.317Z,2.38
2022-12-03T08:39:03.317Z,2.38
2022-12-03T08:40:03.277Z,2.37
2022-12-03T08:41:03.256Z,2.35
2022-12-03T08:42:03.246Z,2.38
2022-12-03T08:43:03.245Z,2.38
2022-12-03T08:44:03.227Z,2.40
2022-12-03T08:45:03.214Z,2.45
2022-12-03T08:46:03.256Z,2.46
2022-12-03T08:47:03.177Z,2.52
2022-12-03T08:48:03.164Z,2.53
2022-12-03T08:49:03.163Z,2.58
2022-12-03T08:50:03.136Z,2.56
2022-12-03T08:51:03.118Z,2.56
2022-12-03T08:52:03.127Z,2.55
2022-12-03T08:53:03.116Z,2.55
2022-12-03T08:54:03.099Z,2.52
2022-12-03T08:55:03.074Z,2.49
2022-12-03T08:56:03.055Z,2.52
2022-12-03T08:57:03.045Z,2.56
2022-12-03T08:58:03.032Z,2.59
2022-12-03T08:59:03.048Z,2.58
2022-12-03T09:00:03.017Z,2.63
2022-12-03T09:01:03.011Z,2.64
2022-12-03T09:02:03.008Z,2.64
2022-12-03T09:03:03.006Z,2.63
2022-12-03T09:04:03.125Z,2.64
2022-12-03T09:05:02.967Z,2.67
2022-12-03T09:06:02.940Z,2.67
2022-12-03T09:07:02.916Z,2.69
2022-12-03T09:08:03.007Z,2.70
2022-12-03T09:09:06.759Z,2.70
2022-12-03T09:10:02.876Z,2.70
2022-12-03T09:11:02.867Z,2.79
2022-12-03T09:12:02.850Z,3.05
2022-12-03T09:13:02.836Z,3.21
2022-12-03T09:14:02.864Z,3.39
2022-12-03T09:15:02.826Z,3.50
2022-12-03T09:16:02.798Z,3.52
2022-12-03T09:17:02.843Z,3.58
2022-12-03T09:18:02.778Z,3.57
2022-12-03T09:19:02.777Z,3.57
2022-12-03T09:20:02.756Z,3.43
2022-12-03T09:21:02.745Z,3.34
2022-12-03T09:22:02.720Z,3.39
2022-12-03T09:23:02.717Z,3.39
2022-12-03T09:24:02.707Z,3.36
2022-12-03T09:25:02.707Z,3.33
2022-12-03T09:26:02.667Z,3.36
2022-12-03T09:27:02.667Z,3.36
2022-12-03T09:28:02.648Z,3.36
2022-12-03T09:29:06.343Z,3.42
2022-12-03T09:30:03.635Z,3.39
2022-12-03T09:31:02.610Z,3.40
2022-12-03T09:32:02.629Z,3.40
2022-12-03T09:33:02.579Z,3.43
2022-12-03T09:34:02.569Z,3.49
2022-12-03T09:35:02.594Z,3.49
2022-12-03T09:36:02.538Z,3.47
2022-12-03T09:37:02.527Z,3.46
2022-12-03T09:38:02.509Z,3.47
2022-12-03T09:39:02.521Z,3.43
2022-12-03T09:40:02.477Z,3.44
2022-12-03T09:41:02.478Z,3.40
2022-12-03T09:42:02.458Z,3.40
2022-12-03T09:43:09.481Z,3.40
2022-12-03T09:44:04.422Z,3.36
2022-12-03T09:45:02.420Z,3.40
2022-12-03T09:46:02.432Z,3.44
2022-12-03T09:47:02.401Z,3.49
2022-12-03T09:48:02.376Z,3.50
2022-12-03T09:49:02.383Z,3.49
2022-12-03T09:50:02.357Z,3.50
2022-12-03T09:51:02.348Z,3.47
2022-12-03T09:52:02.320Z,3.47
2022-12-03T09:53:02.323Z,3.50
2022-12-03T09:54:02.313Z,3.50
2022-12-03T09:55:02.291Z,3.50
2022-12-03T09:56:02.276Z,3.49
2022-12-03T09:57:02.270Z,3.53
2022-12-03T09:58:02.243Z,3.50
2022-12-03T09:59:02.252Z,3.49
2022-12-03T10:00:02.233Z,3.52
2022-12-03T10:01:02.258Z,3.52
2022-12-03T10:02:02.301Z,3.52
2022-12-03T10:03:02.182Z,3.54
2022-12-03T10:04:02.275Z,3.57
2022-12-03T10:05:02.220Z,3.60
2022-12-03T10:06:02.141Z,3.50
2022-12-03T10:07:02.121Z,3.49
2022-12-03T10:08:02.193Z,3.47
2022-12-03T10:09:02.127Z,3.46
2022-12-03T10:10:02.084Z,3.43
2022-12-03T10:11:02.077Z,3.40
2022-12-03T10:12:02.061Z,3.39
2022-12-03T10:13:02.052Z,3.46
2022-12-03T10:14:02.051Z,3.44
2022-12-03T10:15:02.022Z,3.47
2022-12-03T10:16:02.010Z,3.42
2022-12-03T10:17:02.056Z,3.42
2022-12-03T10:18:01.988Z,3.44
2022-12-03T10:19:01.981Z,3.44
2022-12-03T10:20:01.961Z,3.46
2022-12-03T10:21:01.942Z,3.44
2022-12-03T10:22:01.932Z,3.46
2022-12-03T10:23:01.916Z,3.46
2022-12-03T10:24:01.924Z,3.50
2022-12-03T10:25:01.893Z,3.47
2022-12-03T10:26:01.873Z,3.49
2022-12-03T10:27:01.868Z,3.50
2022-12-03T10:28:01.841Z,3.52
2022-12-03T10:29:01.853Z,3.52
2022-12-03T10:30:01.821Z,3.46
2022-12-03T10:31:01.871Z,3.46
2022-12-03T10:32:01.804Z,3.52
2022-12-03T10:33:01.786Z,3.52
2022-12-03T10:34:01.773Z,3.54
2022-12-03T10:35:01.769Z,3.47
2022-12-03T10:36:01.735Z,3.52
2022-12-03T10:37:01.734Z,3.57
2022-12-03T10:38:01.716Z,3.57
2022-12-03T10:39:01.713Z,3.57
2022-12-03T10:40:01.685Z,3.54
2022-12-03T10:41:01.682Z,3.50
2022-12-03T10:42:01.664Z,3.49
2022-12-03T10:43:01.654Z,3.43
2022-12-03T10:44:01.655Z,3.39
2022-12-03T10:45:01.634Z,3.40
2022-12-03T10:46:04.278Z,3.40
2022-12-03T10:47:01.697Z,3.39
2022-12-03T10:48:01.581Z,3.39
2022-12-03T10:49:01.591Z,3.36
2022-12-03T10:50:01.552Z,3.43
2022-12-03T10:51:01.546Z,3.43
2022-12-03T10:52:01.522Z,3.44
2022-12-03T10:53:01.525Z,3.50
2022-12-03T10:54:01.550Z,3.52
2022-12-03T10:55:01.499Z,3.57
2022-12-03T10:56:01.481Z,3.58
2022-12-03T10:57:01.492Z,3.53
2022-12-03T10:58:01.460Z,3.61
2022-12-03T10:59:01.461Z,3.83
2022-12-03T11:00:01.429Z,4.04
2022-12-03T11:01:01.473Z,4.14
2022-12-03T11:02:01.472Z,4.12
2022-12-03T11:03:01.391Z,4.14
2022-12-03T11:04:01.465Z,4.15
2022-12-03T11:05:01.369Z,4.14
2022-12-03T11:06:01.345Z,4.08
2022-12-03T11:07:01.335Z,4.04
2022-12-03T11:08:01.365Z,4.06
2022-12-03T11:09:05.417Z,4.10
2022-12-03T11:10:02.291Z,4.06
2022-12-03T11:11:01.277Z,4.00
2022-12-03T11:12:01.264Z,3.98
2022-12-03T11:13:01.255Z,4.04
2022-12-03T11:14:01.255Z,4.03
2022-12-03T11:15:01.238Z,4.01
2022-12-03T11:16:01.262Z,4.06
2022-12-03T11:17:01.205Z,4.07
2022-12-03T11:18:01.190Z,4.08
2022-12-03T11:19:01.229Z,4.03
2022-12-03T11:20:01.166Z,4.01
2022-12-03T11:21:01.170Z,3.97
2022-12-03T11:22:01.139Z,4.01
2022-12-03T11:23:01.124Z,4.04
2022-12-03T11:24:01.131Z,4.03
2022-12-03T11:25:01.108Z,4.00
2022-12-03T11:26:01.090Z,4.00
2022-12-03T11:27:01.074Z,3.97
2022-12-03T11:28:01.055Z,3.94
2022-12-03T11:29:01.057Z,4.00
2022-12-03T11:30:01.065Z,4.00
2022-12-03T11:31:01.120Z,3.97
2022-12-03T11:32:00.998Z,3.97
2022-12-03T11:33:00.995Z,3.97
2022-12-03T11:34:00.994Z,4.00
2022-12-03T11:35:00.972Z,4.00
2022-12-03T11:36:00.951Z,4.07
2022-12-03T11:37:02.098Z,4.01
2022-12-03T11:38:00.928Z,3.98
2022-12-03T11:39:00.927Z,3.97
2022-12-03T11:40:00.906Z,3.98
2022-12-03T11:41:00.898Z,4.01
2022-12-03T11:42:00.876Z,3.94
2022-12-03T11:43:00.865Z,3.97
2022-12-03T11:44:00.869Z,3.97
2022-12-03T11:45:00.837Z,3.94
2022-12-03T11:46:04.186Z,4.01
2022-12-03T11:47:00.866Z,4.01
2022-12-03T11:48:00.790Z,3.97
2022-12-03T11:49:00.804Z,3.92
2022-12-03T11:50:00.766Z,3.86
2022-12-03T11:51:00.756Z,3.80
2022-12-03T11:52:00.751Z,3.80
2022-12-03T11:53:00.729Z,3.82
2022-12-03T11:54:00.737Z,3.82
2022-12-03T11:55:00.705Z,3.80
2022-12-03T11:56:04.327Z,3.82
2022-12-03T11:57:00.679Z,3.89
2022-12-03T11:58:00.661Z,3.98
2022-12-03T11:59:00.657Z,4.07
2022-12-03T12:00:00.637Z,4.12
2022-12-03T12:01:00.629Z,4.18
2022-12-03T12:02:00.613Z,4.22
2022-12-03T12:03:00.641Z,4.24
2022-12-03T12:04:00.683Z,4.19
2022-12-03T12:05:00.574Z,4.18
2022-12-03T12:06:00.556Z,4.15
2022-12-03T12:07:00.555Z,4.16
2022-12-03T12:08:00.579Z,4.19
2022-12-03T12:09:00.551Z,4.18
2022-12-03T12:10:00.506Z,4.15
2022-12-03T12:11:00.498Z,4.15
2022-12-03T12:12:00.477Z,4.12
2022-12-03T12:13:00.473Z,4.10
2022-12-03T12:14:00.465Z,4.14
2022-12-03T12:15:00.450Z,4.14
2022-12-03T12:16:00.452Z,4.10
2022-12-03T12:17:00.419Z,4.08
2022-12-03T12:18:00.406Z,4.06
2022-12-03T12:19:00.398Z,3.98
2022-12-03T12:20:00.674Z,3.98
2022-12-03T12:21:00.357Z,3.98
2022-12-03T12:22:00.351Z,3.97
2022-12-03T12:23:00.336Z,3.89
2022-12-03T12:24:00.347Z,3.83
2022-12-03T12:25:00.310Z,3.82
2022-12-03T12:26:00.300Z,3.80
2022-12-03T12:27:00.281Z,3.78
2022-12-03T12:28:00.267Z,3.71
2022-12-03T12:29:00.282Z,3.68
2022-12-03T12:30:00.246Z,3.65
2022-12-03T12:31:00.271Z,3.61
2022-12-03T12:32:00.315Z,3.62
2022-12-03T12:33:00.214Z,3.62
2022-12-03T12:34:00.216Z,3.62
2022-12-03T12:35:00.168Z,3.64
2022-12-03T12:36:00.165Z,3.61
2022-12-03T12:37:00.156Z,3.61
2022-12-03T12:38:00.714Z,3.64
2022-12-03T12:39:00.145Z,3.62
2022-12-03T12:40:00.152Z,3.62
2022-12-03T12:41:00.089Z,3.62
2022-12-03T12:42:00.090Z,3.67
2022-12-03T12:43:00.105Z,3.68
2022-12-03T12:44:00.083Z,3.68
2022-12-03T12:45:00.037Z,3.71
2022-12-03T12:46:09.446Z,3.67
2022-12-03T12:47:01.168Z,3.71
2022-12-03T12:48:00.006Z,3.70
2022-12-03T12:49:00.161Z,3.72
2022-12-03T12:49:59.978Z,3.79
2022-12-03T12:50:59.959Z,3.80
2022-12-03T12:52:00.037Z,3.80
2022-12-03T12:52:59.941Z,3.83
2022-12-03T12:53:59.938Z,3.83
2022-12-03T12:55:04.605Z,3.80
2022-12-03T12:56:00.899Z,3.83
2022-12-03T12:56:59.901Z,3.82
2022-12-03T12:57:59.870Z,3.76
2022-12-03T12:58:59.878Z,3.75
2022-12-03T12:59:59.840Z,3.70
2022-12-03T13:00:59.878Z,3.70
2022-12-03T13:02:00.019Z,3.67
2022-12-03T13:02:59.902Z,3.61
2022-12-03T13:03:59.811Z,3.61
2022-12-03T13:04:59.772Z,3.65
2022-12-03T13:05:59.773Z,3.65
2022-12-03T13:06:59.753Z,3.64
2022-12-03T13:07:59.792Z,3.58
2022-12-03T13:08:59.740Z,3.58
2022-12-03T13:09:59.711Z,3.54
2022-12-03T13:10:59.713Z,3.58
2022-12-03T13:11:59.813Z,3.57
2022-12-03T13:12:59.686Z,3.61
2022-12-03T13:13:59.672Z,3.64
2022-12-03T13:14:59.649Z,3.64
2022-12-03T13:15:59.713Z,3.57
2022-12-03T13:16:59.673Z,3.57
2022-12-03T13:17:59.608Z,3.53
2022-12-03T13:18:59.631Z,3.57